Elizabeth, Indiana
Current Conditions -  °F | °C
As of 8:56 AM on Friday 24 Oct 2014 (Local Time) from KSDF Reporting Station
Haze Haze  
Wind Chill: 41°   Ceiling: 20000
Heat Index: 45°   Visibility: 6mi
Dew Point: 42°   Wind: 8mph
Humidity: 90%   Direction: 150°SSE
Pressure: 30.14"   Gusts: NA
Location:  38.12°N, 85.97°W
Report Text: KSDF 241256Z 15007KT 6SM BR SCT150 BKN200 07/06 A3014 RMK AO2 SLP207 VIS LWR W T00720056
Loading
Personal Weather Stations






























Interactive Weather Map
Tropical Storm Tracking
New forecast layout! Learn more

10-Day Weather Forecast

Advertisements
Track Severe Weather on mobile